Stations météo

réclame
Mon MeteoGroup
Fichtelberg, Allemagne (10578): Température de l'air & dewpoint: 14.07.2019 16:00:00 - 20.07.2019 16:00:00 (CEST)Fichtelberg, Allemagne (10578): Température de l'air 5cm & Température de l'air -5cm: 14.07.2019 16:00:00 - 20.07.2019 16:00:00 (CEST)Fichtelberg, Allemagne (10578): Température de l'air -20cm & Température de l'air -100cm: 14.07.2019 16:00:00 - 20.07.2019 16:00:00 (CEST)Fichtelberg, Allemagne (10578): Vitesse du vent & gusts: 14.07.2019 16:00:00 - 20.07.2019 16:00:00 (CEST)Fichtelberg, Allemagne (10578): Direction du vent: 14.07.2019 16:00:00 - 20.07.2019 16:00:00 (CEST)Fichtelberg, Allemagne (10578): visibility: 14.07.2019 16:00:00 - 20.07.2019 16:00:00 (CEST)Fichtelberg, Allemagne (10578): Ensoleillement: 14.07.2019 16:00:00 - 20.07.2019 16:00:00 (CEST)
Date & Time tt [°C] td [°C] tt 5cm [°C] tt -5cm [°C] tt -20cm [°C] tt -100cm [°C] ff [km/h] ff [knt] fx [km/h] fx [knt] dd vv [km] sd [min]
20.07.2019 16:00:00 22,2 12,1 26,8 24,0 15,5 12,0 24 13 37 20 SW 48 43
20.07.2019 15:00:00 21,1 11,3 24,4 23,6 15,0 12,0 23 13 32 17 SW 56 40
20.07.2019 14:00:00 20,7 11,8 25,5 22,7 14,5 12,0 20 11 33 18 SW 67 47
20.07.2019 13:00:00 20,2 12,0 25,0 21,3 14,0 12,0 22 12 40 22 SW 75 56
20.07.2019 12:00:00 18,9 11,9 23,1 19,7 13,7 12,0 17 9 38 21 SW 55 56
20.07.2019 11:00:00 17,4 11,8 20,5 17,8 13,5 12,0 18 10 28 15 SW 53 60
20.07.2019 10:00:00 16,4 11,6 18,2 15,7 13,4 12,0 16 8 25 14 SW 49 59
20.07.2019 09:00:00 15,3 11,0 15,1 13,8 13,5 12,0 13 7 19 11 WSW 71 56
20.07.2019 08:00:00 14,1 10,9 13,2 12,4 13,5 12,0 15 8 19 11 WSW 43 52
20.07.2019 07:00:00 12,5 10,4 11,4 11,6 13,7 12,0 18 10 19 10 WSW 48 26
20.07.2019 06:00:00 11,6 10,4 10,5 11,5 13,8 12,0 18 10 18 10 WSW 32 0
20.07.2019 05:00:00 11,3 10,2 9,8 11,9 14,0 12,0 15 8 20 11 W 23 0
20.07.2019 04:00:00 11,7 10,5 10,6 12,1 14,1 12,0 18 10 24 13 W 28 0
20.07.2019 03:00:00 11,4 10,3 10,6 12,1 14,3 12,0 20 11 23 13 WSW 29 0
20.07.2019 02:00:00 11,3 10,1 9,8 12,5 14,4 12,0 21 11 26 14 W 30 0
20.07.2019 01:00:00 11,6 10,2 10,2 13,0 14,5 12,0 24 13 31 17 W 32 0
20.07.2019 00:00:00 12,0 10,3 10,7 13,6 14,7 12,0 27 15 34 18 W 38 0
19.07.2019 23:00:00 12,2 10,6 11,5 14,0 14,7 12,0 26 14 36 19 W 35 0
19.07.2019 22:00:00 12,1 10,3 11,6 14,5 14,8 12,0 30 16 42 23 W 55 0
19.07.2019 21:00:00 12,4 10,8 11,9 15,2 14,8 12,0 36 20 45 24 W 41 0
19.07.2019 20:00:00 12,7 11,4 12,6 15,9 14,7 11,9 29 15 37 20 W 30 0
19.07.2019 19:00:00 14,4 11,4 15,0 16,5 14,7 11,9 22 12 40 22 W 37 3
19.07.2019 18:00:00 14,6 10,7 15,8 16,8 14,5 11,9 32 18 46 25 W 53 0
19.07.2019 17:00:00 15,0 11,0 16,1 17,1 14,4 11,9 28 15 57 31 W 50 5
19.07.2019 16:00:00 14,4 10,7 15,6 17,0 14,2 11,9 34 18 44 24 WSW 47 2
19.07.2019 15:00:00 13,5 10,4 13,6 17,1 14,1 11,9 29 16 50 27 W 27 1
19.07.2019 14:00:00 14,4 12,0 16,4 16,4 13,9 11,9 31 17 46 25 W 52 7
19.07.2019 13:00:00 13,2 10,4 13,6 16,0 13,8 11,9 35 19 48 26 W 21 0
19.07.2019 12:00:00 12,8 10,8 13,4 15,6 13,7 11,9 36 19 56 31 W 21 0
19.07.2019 11:00:00 14,7 10,0 15,4 15,2 13,6 11,9 30 16 41 22 W 38 5
19.07.2019 10:00:00 14,1 10,0 14,6 14,0 13,6 11,9 22 12 33 18 W 33 0
19.07.2019 09:00:00 14,2 9,5 14,7 13,3 13,7 11,9 23 13 33 18 W 43 0
19.07.2019 08:00:00 14,1 8,8 14,1 12,6 13,8 11,9 27 15 34 18 W 52 0
19.07.2019 07:00:00 13,3 8,0 13,0 12,0 13,9 11,9 28 15 34 18 W 49 0
19.07.2019 06:00:00 13,0 7,7 12,2 12,0 14,1 11,9 29 16 35 19 W 55 0
19.07.2019 05:00:00 11,9 8,1 10,9 12,0 14,2 11,9 28 15 48 26 W 39 0
19.07.2019 04:00:00 13,8 6,1 12,9 12,0 14,4 11,9 27 15 33 18 W 67 0
19.07.2019 03:00:00 13,3 6,1 11,5 12,1 14,6 11,9 20 11 21 11 W 51 0
19.07.2019 02:00:00 13,2 6,1 10,0 12,4 14,8 11,9 14 8 16 9 W 59 0
19.07.2019 01:00:00 14,0 5,6 9,2 12,9 15,0 11,9 4 2 13 7 NW 55 0
19.07.2019 00:00:00 13,7 5,8 12,1 13,7 15,2 11,9 13 7 18 10 N 57 0
18.07.2019 23:00:00 13,6 6,8 11,0 14,5 15,3 11,9 13 7 19 11 NW 55 0
18.07.2019 22:00:00 14,3 6,8 12,3 15,4 15,4 11,9 13 7 17 9 NW 48 0
18.07.2019 21:00:00 14,5 7,2 12,1 16,7 15,3 11,9 16 8 22 12 WNW 53 0
18.07.2019 20:00:00 16,4 7,4 16,1 18,2 15,2 11,9 16 8 20 11 WNW 44 15
18.07.2019 19:00:00 18,1 7,2 19,7 19,1 15,0 11,9 16 8 28 15 WNW 51 45
18.07.2019 18:00:00 18,1 7,0 20,5 19,3 14,8 11,9 17 9 28 15 WNW 43 20
18.07.2019 17:00:00 17,7 6,4 18,3 20,1 14,5 11,9 19 11 29 16 WNW 54 20
18.07.2019 16:00:00 17,5 7,6 19,7 19,8 14,2 11,9 16 8 26 14 WNW 58 20
18.07.2019 15:00:00 16,8 8,5 18,7 18,8 13,9 11,9 8 5 20 11 WNW 54 3
18.07.2019 14:00:00 16,1 8,4 18,4 18,5 13,5 11,9 10 5 17 9 NNW 51 16
18.07.2019 13:00:00 15,3 9,0 18,8 17,8 13,2 11,9 4 2 17 9 ENE 42 8
18.07.2019 12:00:00 15,6 8,0 19,5 17,4 12,9 11,9 3 1 27 14 S 42 22
18.07.2019 11:00:00 15,9 8,8 19,8 16,2 12,7 11,9 16 8 27 15 SW 56 40
18.07.2019 10:00:00 14,4 8,1 15,6 14,1 12,6 12,0 14 8 23 12 WSW 41 57
18.07.2019 09:00:00 13,2 7,9 14,8 11,8 12,7 12,0 12 7 23 12 SW 41 60
18.07.2019 08:00:00 11,8 6,7 12,1 10,3 12,9 12,0 18 10 24 13 SSW 43 60
18.07.2019 07:00:00 10,6 6,1 9,2 9,8 13,1 12,0 22 12 26 14 SSW 44 21
18.07.2019 06:00:00 9,9 5,9 8,1 9,9 13,3 12,0 16 9 21 11 S 40 0
18.07.2019 05:00:00 9,8 5,8 8,3 10,1 13,5 12,0 13 7 22 12 SE 48 0
18.07.2019 04:00:00 9,8 5,5 8,3 10,3 13,8 12,0 19 10 21 12 SE 51 0
18.07.2019 03:00:00 9,7 5,7 7,6 10,5 14,0 12,0 21 11 25 13 SE 44 0
18.07.2019 02:00:00 9,6 6,1 7,6 11,0 14,3 12,0 19 10 23 13 SE 23 0
18.07.2019 01:00:00 10,1 6,8 7,9 11,5 14,5 12,0 18 10 21 11 SE 16 0
18.07.2019 00:00:00 9,8 6,8 6,8 12,3 14,7 12,0 13 7 16 9 E 18 0
17.07.2019 23:00:00 10,3 7,2 8,5 13,2 14,9 12,0 11 6 16 9 NE 18 0
17.07.2019 22:00:00 10,4 7,9 9,2 14,3 14,9 12,0 14 8 19 10 NNE 18 0
17.07.2019 21:00:00 10,8 8,4 9,9 15,9 14,9 12,0 17 9 19 10 N 19 47
17.07.2019 20:00:00 12,5 9,2 12,3 18,0 14,7 12,0 19 11 29 16 NNW 31 60
17.07.2019 19:00:00 13,5 9,6 16,7 19,4 14,4 12,0 17 9 26 14 NNW 25 59
17.07.2019 18:00:00 14,7 10,2 18,6 19,7 14,1 12,0 16 8 28 15 NW 38 60
17.07.2019 17:00:00 14,8 10,0 17,7 19,1 13,9 12,0 16 9 27 15 WNW 49 56
17.07.2019 16:00:00 13,5 10,7 17,3 17,5 13,6 12,0 19 10 25 14 NW 22 5
17.07.2019 15:00:00 12,2 10,0 16,2 17,3 13,3 12,0 13 7 19 11 NNW 21 1
17.07.2019 14:00:00 11,4 9,5 14,3 17,5 13,1 12,0 10 6 19 11 NNW 16 0
17.07.2019 13:00:00 12,0 9,7 16,0 16,8 12,8 12,0 12 6 18 10 NW 28 4
17.07.2019 12:00:00 10,6 8,9 14,5 15,1 12,7 12,0 8 4 13 7 WNW 19 0
17.07.2019 11:00:00 9,1 8,6 11,5 13,5 12,7 12,0 5 3 14 7 WSW 0,2 0
17.07.2019 10:00:00 8,8 8,4 10,9 12,6 12,7 12,0 8 5 15 8 WNW 0,1 0
17.07.2019 09:00:00 8,3 7,9 9,6 11,9 12,7 12,0 11 6 20 11 NW 0,1 0
17.07.2019 08:00:00 7,8 7,3 8,6 11,3 12,8 12,0 15 8 22 12 NW 0,1 0
17.07.2019 07:00:00 7,7 7,3 8,6 10,8 13,0 12,0 15 8 22 12 WNW 0,1 0
17.07.2019 06:00:00 7,5 7,1 7,8 10,7 13,1 12,0 20 11 29 15 NW 0,1 0
17.07.2019 05:00:00 7,4 7,0 7,7 10,8 13,3 12,0 21 12 27 14 NW 0,1 0
17.07.2019 04:00:00 7,6 7,1 7,8 11,1 13,4 12,0 23 13 33 18 NW 0,2 0
17.07.2019 03:00:00 8,0 7,6 8,2 11,3 13,6 12,0 22 12 32 17 NW 0,1 0
17.07.2019 02:00:00 8,1 7,7 8,3 11,5 13,8 12,0 27 14 35 19 NW 0,1 0
17.07.2019 01:00:00 8,2 7,8 8,5 11,7 14,0 12,0 31 17 40 21 NW 0,1 0
17.07.2019 00:00:00 8,4 8,0 8,7 12,0 14,2 12,0 31 17 41 22 NW 0,1 0
16.07.2019 23:00:00 8,4 8,0 8,5 12,3 14,3 12,1 32 17 43 23 NW 0,2 0
16.07.2019 22:00:00 8,4 7,5 7,7 13,4 14,4 12,1 37 20 43 23 NW 14 0
16.07.2019 21:00:00 9,3 7,7 8,5 15,1 14,4 12,1 32 17 38 20 NW 16 55
16.07.2019 20:00:00 11,1 8,2 10,7 17,4 14,1 12,1 31 17 37 20 NW 31 60
16.07.2019 19:00:00 12,7 8,9 15,2 18,9 13,8 12,1 26 14 34 18 NW 41 60
16.07.2019 18:00:00 14,1 9,0 17,5 19,6 13,4 12,1 21 11 34 18 WNW 56 60
16.07.2019 17:00:00 14,5 8,4 18,2 19,3 13,1 12,1 23 12 36 19 WNW 48 60
16.07.2019 16:00:00 13,3 8,0 17,5 18,1 12,8 12,1 26 14 37 20 WNW 64 60
16.07.2019 15:00:00 11,4 8,4 15,6 15,4 12,7 12,1 28 15 39 21 W 48 30
16.07.2019 14:00:00 8,7 7,5 11,3 13,4 12,6 12,1 32 17 39 21 WNW 9 0
16.07.2019 13:00:00 7,6 6,9 9,4 13,3 12,5 12,1 26 14 39 21 WNW 0,1 0
16.07.2019 12:00:00 7,7 6,8 9,7 13,1 12,4 12,1 31 17 40 21 WNW 0,1 0
16.07.2019 11:00:00 7,4 6,7 9,2 12,6 12,4 12,1 33 18 48 26 WNW 0,3 0
16.07.2019 10:00:00 7,0 6,4 8,6 11,9 12,5 12,1 34 18 41 22 WNW 0,1 0
16.07.2019 09:00:00 6,2 5,8 7,9 10,8 12,6 12,1 33 18 48 26 WNW 0,1 0
16.07.2019 08:00:00 5,2 4,7 6,3 10,2 12,7 12,1 37 20 45 24 WNW 0,2 0
16.07.2019 07:00:00 5,4 5,0 6,0 9,9 12,9 12,1 36 19 45 24 WNW 0,1 0
16.07.2019 06:00:00 5,7 5,3 6,0 10,0 13,1 12,1 37 20 46 25 WNW 0,1 0
16.07.2019 05:00:00 6,1 5,6 6,3 10,3 13,3 12,1 31 17 40 22 WNW 0,1 0
16.07.2019 04:00:00 6,6 6,2 6,9 10,6 13,4 12,1 28 15 37 20 WNW 0,1 0
16.07.2019 03:00:00 6,8 6,4 7,1 10,9 13,6 12,1 28 15 35 19 WNW 0,1 0
16.07.2019 02:00:00 7,0 6,6 7,3 11,2 13,9 12,2 30 16 36 20 WNW 0,1 0
16.07.2019 01:00:00 7,4 6,9 7,7 11,6 14,1 12,2 29 16 37 20 NW 0,1 0
16.07.2019 00:00:00 7,9 7,4 8,2 11,9 14,3 12,2 28 15 40 21 NW 0,1 0
15.07.2019 23:00:00 8,2 7,6 8,0 12,4 14,5 12,2 29 16 34 18 NW 4,1 0
15.07.2019 22:00:00 8,4 7,6 7,5 13,5 14,6 12,2 23 12 27 14 NW 5 0
15.07.2019 21:00:00 9,5 8,1 8,6 15,0 14,6 12,2 19 10 29 16 NW 8 53
15.07.2019 20:00:00 11,3 8,5 10,9 16,9 14,4 12,2 22 12 29 15 NW 17 60
15.07.2019 19:00:00 12,0 9,1 14,7 18,0 14,2 12,2 23 12 31 17 NW 16 54
15.07.2019 18:00:00 12,6 9,5 15,6 18,6 13,9 12,2 24 13 31 17 NW 18 40
15.07.2019 17:00:00 12,8 10,0 15,3 19,5 13,5 12,2 23 12 31 17 NW 22 35
15.07.2019 16:00:00 13,5 10,6 17,9 19,7 13,1 12,2 18 10 26 14 WNW 30 52
15.07.2019 15:00:00 13,2 10,7 17,2 18,5 12,8 12,2 17 9 25 13 NW 19 37
15.07.2019 14:00:00 12,5 10,9 15,9 17,3 12,5 12,2 14 7 22 12 NW 20 16
15.07.2019 13:00:00 11,5 10,2 14,4 15,7 12,3 12,2 15 8 25 13 WNW 17 26
15.07.2019 12:00:00 10,0 9,4 11,5 13,4 12,2 12,2 13 7 22 12 W 4,2 0
15.07.2019 11:00:00 8,8 8,2 10,3 13,1 12,1 12,3 16 8 21 11 NW 0,2 0
15.07.2019 10:00:00 9,3 9,1 11,4 11,9 12,1 12,3 13 7 18 10 NW 0,3 0
15.07.2019 09:00:00 8,1 7,7 9,0 11,3 12,1 12,3 12 7 19 10 NNW 0,1 0
15.07.2019 08:00:00 8,3 7,9 9,5 10,7 12,2 12,3 14 7 21 11 NW 0,1 0
15.07.2019 07:00:00 8,1 7,7 8,6 10,4 12,3 12,3 15 8 21 11 NNW 0,1 0
15.07.2019 06:00:00 7,9 7,5 8,2 10,4 12,4 12,3 18 10 24 13 N 0,1 0
15.07.2019 05:00:00 8,1 7,7 8,3 10,6 12,5 12,3 15 8 24 13 N 0,1 0
15.07.2019 04:00:00 8,3 7,9 8,5 10,7 12,6 12,3 14 8 24 13 N 0,1 0
15.07.2019 03:00:00 8,5 8,1 8,7 10,8 12,7 12,3 16 8 24 13 N 0,1 0
15.07.2019 02:00:00 8,7 8,4 8,9 11,0 12,8 12,3 17 9 26 14 N 0,1 0
15.07.2019 01:00:00 8,7 8,3 8,9 11,1 12,9 12,3 14 8 27 15 N 0,1 0
15.07.2019 00:00:00 8,7 8,3 9,0 11,2 13,0 12,3 18 10 28 15 N 0,1 0
14.07.2019 23:00:00 8,6 8,2 8,9 11,4 13,1 12,3 17 9 23 13 N 0,1 0
14.07.2019 22:00:00 8,5 8,1 8,7 11,7 13,2 12,3 18 10 26 14 N 0,1 0
14.07.2019 21:00:00 8,5 8,1 8,8 12,3 13,2 12,4 18 10 27 15 NNW 0,2 0
14.07.2019 20:00:00 8,8 8,4 9,3 12,8 13,2 12,4 19 11 31 17 N 0,1 0
14.07.2019 19:00:00 8,9 8,4 9,6 13,3 13,2 12,4 21 12 29 16 N 0,1 0
14.07.2019 18:00:00 9,0 8,6 9,9 14,0 13,1 12,4 20 11 27 15 NNW 0,1 0
14.07.2019 17:00:00 9,3 8,8 10,4 14,6 12,9 12,4 21 12 29 15 NNW 0,1 0
14.07.2019 16:00:00 9,6 9,2 11,3 15,0 12,7 12,4 20 11 25 13 NNW 0,1 0

tt = Température de l'air
td = dewpoint
tt 5cm = Température de l'air 5cm
tt -5cm = Température de l'air -5cm
tt -20cm = Température de l'air -20cm
tt -100cm = Température de l'air -100cm
ff = Vitesse du vent
fx = gusts
dd = Direction du vent
vv = visibility
sd = Ensoleillement

stations d'obs. à proximité